Time;durP1;ratioP1;P1;durP2;ratioP2;P2;SDS_P1;SDS_P2;PMS_P1;PMS_P2;Temp;Humidity;BMP_temperature;BMP_pressure;BME280_temperature;BME280_humidity;BME280_pressure;Samples;Min_cycle;Max_cycle;Signal;HPM_P1;HPM_P2
2023/04/17 00:00:52;;;;;;;7.68;3.22;;;;;;;12.24;100.00;99885.75;5012287;28;20026;-74
2023/04/17 00:03:17;;;;;;;5.28;3.17;;;;;;;12.32;100.00;99888.47;5011749;28;20476;-73
2023/04/17 00:05:45;;;;;;;5.75;3.40;;;;;;;12.30;100.00;99897.09;5011453;28;20399;-73
2023/04/17 00:08:10;;;;;;;6.30;3.38;;;;;;;12.25;100.00;99871.94;5012247;28;20484;-74
2023/04/17 00:10:36;;;;;;;6.60;3.80;;;;;;;12.25;100.00;99871.94;5010331;28;20044;-74
2023/04/17 00:13:01;;;;;;;8.20;3.78;;;;;;;11.70;100.00;99801.78;5012400;28;20026;-74
2023/04/17 00:15:28;;;;;;;8.05;3.42;;;;;;;12.25;100.00;99871.94;5012110;28;20025;-74
2023/04/17 00:17:54;;;;;;;7.60;3.72;;;;;;;11.87;100.00;99796.97;5011915;28;20025;-74
2023/04/17 00:20:20;;;;;;;5.50;3.25;;;;;;;12.28;100.00;99864.25;5011632;28;20041;-74
2023/04/17 00:22:46;;;;;;;9.02;3.75;;;;;;;12.31;100.00;99872.06;5011198;28;20029;-73
2023/04/17 00:25:13;;;;;;;5.88;3.03;;;;;;;12.06;100.00;99812.06;5010657;28;20037;-74
2023/04/17 00:27:41;;;;;;;9.77;3.70;;;;;;;12.28;100.00;99869.44;5011734;28;20021;-73
2023/04/17 00:30:09;;;;;;;6.03;3.47;;;;;;;12.10;100.00;99880.25;5010492;28;20125;-74
2023/04/17 00:32:34;;;;;;;7.10;3.53;;;;;;;12.00;100.00;99876.63;5011498;28;20033;-75
2023/04/17 00:35:00;;;;;;;6.88;3.35;;;;;;;11.97;100.00;99877.44;5010970;28;20524;-74
2023/04/17 00:37:25;;;;;;;5.55;3.05;;;;;;;11.68;100.00;99825.03;5011576;28;20026;-73
2023/04/17 00:39:51;;;;;;;5.68;3.38;;;;;;;12.02;100.00;99879.22;5011554;28;20048;-74
2023/04/17 00:42:17;;;;;;;4.93;3.10;;;;;;;11.78;100.00;99841.63;5011485;28;20026;-73
2023/04/17 00:44:42;;;;;;;5.00;2.92;;;;;;;11.96;100.00;99879.97;5011903;28;20034;-74
2023/04/17 00:47:08;;;;;;;7.43;3.45;;;;;;;11.82;100.00;99854.66;5011372;28;20026;-72
2023/04/17 00:49:34;;;;;;;5.90;3.03;;;;;;;11.85;100.00;99861.59;5008510;28;20100;-75
2023/04/17 00:58:43;;;;;;;5.40;3.22;;;;;;;11.79;100.00;99846.81;5024074;23;20674;-73
2023/04/17 01:01:10;;;;;;;4.00;3.20;;;;;;;11.77;100.00;99843.31;4990709;28;20023;-73
2023/04/17 01:06:58;;;;;;;4.30;2.92;;;;;;;11.75;100.00;99847.59;5082292;23;20069;-74
2023/04/17 01:09:24;;;;;;;6.75;3.25;;;;;;;11.74;100.00;99848.44;5011496;28;20069;-73
2023/04/17 01:11:49;;;;;;;4.82;3.15;;;;;;;11.16;100.00;99742.91;5011598;28;20057;-73
2023/04/17 01:14:15;;;;;;;4.50;3.15;;;;;;;11.88;100.00;99872.00;5011638;28;20049;-72
2023/04/17 01:16:40;;;;;;;7.43;3.53;;;;;;;11.84;100.00;99864.13;5010140;28;20084;-73
2023/04/17 01:19:07;;;;;;;6.40;3.33;;;;;;;11.72;100.00;99855.28;5011450;28;20547;-73
2023/04/17 01:24:44;;;;;;;6.35;3.60;;;;;;;11.47;100.00;99853.84;5050169;22;20443;-73
2023/04/17 01:27:12;;;;;;;5.30;3.90;;;;;;;11.45;100.00;99856.41;4991924;28;20109;-72
2023/04/17 01:29:39;;;;;;;5.47;3.45;;;;;;;11.18;100.00;99815.28;4969699;28;20046;-74
2023/04/17 01:32:04;;;;;;;7.38;4.18;;;;;;;11.36;100.00;99865.66;4969933;28;20481;-72
2023/04/17 01:34:30;;;;;;;8.60;3.80;;;;;;;11.09;100.00;99826.25;4969886;28;20101;-74
2023/04/17 01:36:55;;;;;;;12.80;4.13;;;;;;;11.42;100.00;99874.41;4969960;28;20532;-75
2023/04/17 01:39:21;;;;;;;6.57;3.67;;;;;;;11.32;100.00;99869.88;4953266;28;20039;-73
2023/04/17 01:41:46;;;;;;;6.32;3.80;;;;;;;11.28;100.00;99857.72;4969617;28;20046;-72
2023/04/17 01:44:11;;;;;;;7.25;3.92;;;;;;;11.44;100.00;99866.69;4969829;28;20047;-73
2023/04/17 01:46:37;;;;;;;5.85;3.70;;;;;;;11.41;100.00;99854.56;4969858;28;20093;-74
2023/04/17 01:49:02;;;;;;;7.43;3.70;;;;;;;11.44;100.00;99864.09;4969748;28;20053;-74
2023/04/17 01:51:28;;;;;;;8.27;4.25;;;;;;;11.42;100.00;99855.47;4969783;28;20030;-72
2023/04/17 01:53:53;;;;;;;6.35;4.10;;;;;;;11.52;100.00;99856.53;4969659;28;20468;-74
2023/04/17 01:56:19;;;;;;;8.40;4.35;;;;;;;11.43;100.00;99836.53;4969367;28;20066;-74
2023/04/17 01:58:44;;;;;;;8.98;5.28;;;;;;;11.48;100.00;99838.38;4969671;28;20077;-71
2023/04/17 02:01:10;;;;;;;9.90;5.00;;;;;;;11.41;100.00;99851.97;4978646;28;20046;-70
2023/04/17 02:10:19;;;;;;;9.80;5.22;;;;;;;10.77;100.00;99844.41;4991167;28;20041;-68
2023/04/17 02:12:44;;;;;;;8.57;5.18;;;;;;;11.21;100.00;99903.19;4972708;28;20042;-70
2023/04/17 02:15:11;;;;;;;9.30;5.10;;;;;;;11.28;100.00;99905.09;4991319;28;20401;-70
2023/04/17 02:17:36;;;;;;;10.00;5.75;;;;;;;11.36;100.00;99902.69;4990187;28;20034;-72
2023/04/17 02:20:05;;;;;;;9.60;6.00;;;;;;;11.26;100.00;99899.00;4991230;28;20030;-70
2023/04/17 02:22:31;;;;;;;10.77;6.43;;;;;;;11.30;100.00;99890.50;4991302;28;20101;-72
2023/04/17 02:24:56;;;;;;;9.43;6.25;;;;;;;11.20;100.00;99869.56;4991593;28;20022;-70
2023/04/17 02:27:22;;;;;;;11.50;6.40;;;;;;;11.09;100.00;99851.19;4991163;28;20029;-73
2023/04/17 02:29:47;;;;;;;10.73;6.13;;;;;;;11.08;100.00;99857.19;4991409;28;20022;-72
2023/04/17 02:32:15;;;;;;;11.10;7.28;;;;;;;10.98;100.00;99843.22;4991099;28;20058;-70
2023/04/17 02:34:40;;;;;;;10.52;8.13;;;;;;;10.97;100.00;99849.19;4991156;28;20040;-72
2023/04/17 02:37:06;;;;;;;15.57;9.40;;;;;;;10.91;100.00;99846.47;4995958;28;20033;-69
2023/04/17 02:39:32;;;;;;;14.20;9.57;;;;;;;11.03;100.00;99858.78;4982628;28;20058;-71
2023/04/17 02:41:58;;;;;;;15.70;10.57;;;;;;;11.09;100.00;99857.25;4968554;28;20035;-71
2023/04/17 02:44:23;;;;;;;18.23;11.05;;;;;;;10.61;100.00;99775.13;4975915;28;20037;-71
2023/04/17 02:46:49;;;;;;;18.98;11.48;;;;;;;11.05;100.00;99864.88;5004961;28;20034;-71
2023/04/17 02:49:14;;;;;;;17.95;11.65;;;;;;;10.80;100.00;99830.69;4990864;28;20050;-72
2023/04/17 02:51:40;;;;;;;16.88;12.27;;;;;;;10.95;100.00;99875.00;4992318;28;20030;-71
2023/04/17 02:54:05;;;;;;;19.20;13.23;;;;;;;11.03;100.00;99877.78;4994688;28;20048;-72
2023/04/17 02:56:31;;;;;;;22.67;14.73;;;;;;;11.11;100.00;99880.53;4987812;28;20111;-73
2023/04/17 02:58:56;;;;;;;24.05;15.98;;;;;;;11.14;100.00;99875.44;4983014;28;20528;-72
2023/04/17 03:01:22;;;;;;;20.50;14.60;;;;;;;11.24;100.00;99882.59;4974669;28;20023;-71
2023/04/17 03:03:47;;;;;;;22.60;13.60;;;;;;;11.28;100.00;99884.41;4974367;28;20441;-72
2023/04/17 03:06:13;;;;;;;17.55;12.93;;;;;;;11.38;100.00;99885.53;4973996;28;20023;-71
2023/04/17 03:08:38;;;;;;;18.27;13.25;;;;;;;11.45;100.00;99884.84;4992398;28;20518;-72
2023/04/17 03:11:04;;;;;;;20.95;13.32;;;;;;;11.54;100.00;99891.03;4993103;28;20101;-70
2023/04/17 03:13:34;;;;;;;17.77;13.27;;;;;;;11.56;100.00;99869.56;4993022;28;20027;-73
2023/04/17 03:16:00;;;;;;;19.42;12.77;;;;;;;11.35;100.00;99836.31;4994252;28;20042;-72
2023/04/17 03:18:25;;;;;;;20.88;13.68;;;;;;;11.23;100.00;99834.34;4993032;28;20038;-70
2023/04/17 03:20:51;;;;;;;17.48;13.73;;;;;;;11.00;100.00;99797.59;4989890;28;20504;-71
2023/04/17 03:23:17;;;;;;;21.33;13.68;;;;;;;11.24;100.00;99824.88;4993072;28;20046;-71
2023/04/17 03:25:42;;;;;;;21.02;14.77;;;;;;;11.23;100.00;99831.75;4990825;28;20484;-71
2023/04/17 03:28:08;;;;;;;22.00;14.23;;;;;;;11.26;100.00;99820.63;5000736;28;20041;-70
2023/04/17 03:30:33;;;;;;;20.15;15.68;;;;;;;11.36;100.00;99838.09;5000256;28;20556;-71
2023/04/17 03:32:58;;;;;;;23.98;15.52;;;;;;;11.41;100.00;99833.88;4966306;28;20048;-71
2023/04/17 03:35:24;;;;;;;18.00;13.88;;;;;;;11.53;100.00;99848.81;5006909;28;20792;-70
2023/04/17 03:37:50;;;;;;;18.38;13.55;;;;;;;11.60;100.00;99852.41;5002721;28;20558;-72
2023/04/17 03:40:15;;;;;;;18.52;13.30;;;;;;;11.55;100.00;99865.25;4990266;28;20026;-70
2023/04/17 03:42:41;;;;;;;18.02;13.07;;;;;;;11.48;100.00;99856.47;5002572;28;20076;-71
2023/04/17 03:45:07;;;;;;;17.25;13.60;;;;;;;11.48;100.00;99856.47;5000191;28;20172;-71
2023/04/17 03:47:32;;;;;;;20.75;14.63;;;;;;;11.51;100.00;99849.63;5000099;28;20428;-72
2023/04/17 03:49:57;;;;;;;19.50;14.40;;;;;;;11.55;100.00;99852.31;4950042;28;20049;-72
2023/04/17 03:52:23;;;;;;;22.42;15.32;;;;;;;11.60;100.00;99842.06;5002734;28;20508;-72
2023/04/17 03:54:48;;;;;;;17.10;13.73;;;;;;;11.54;100.00;99844.50;4997527;28;20041;-72
2023/04/17 03:57:14;;;;;;;22.00;14.07;;;;;;;11.52;100.00;99851.38;4966144;28;20038;-72
2023/04/17 03:59:40;;;;;;;19.65;13.80;;;;;;;11.48;100.00;99856.47;4987728;28;20074;-71
2023/04/17 04:02:05;;;;;;;19.80;14.07;;;;;;;11.38;100.00;99845.91;4992447;28;20041;-72
2023/04/17 04:04:31;;;;;;;22.17;14.18;;;;;;;11.42;100.00;99837.38;4993073;28;20096;-71
2023/04/17 04:06:56;;;;;;;19.38;14.02;;;;;;;11.42;100.00;99845.97;4992394;28;20030;-71
2023/04/17 04:09:23;;;;;;;20.42;14.73;;;;;;;11.34;100.00;99844.94;4992050;28;20030;-72
2023/04/17 04:11:49;;;;;;;21.80;14.65;;;;;;;11.32;100.00;99847.47;4990388;28;20069;-72
2023/04/17 04:14:14;;;;;;;22.10;15.35;;;;;;;11.29;100.00;99850.00;4991454;28;20457;-74
2023/04/17 04:16:40;;;;;;;20.17;15.38;;;;;;;11.31;100.00;99845.75;5006405;28;20121;-74
2023/04/17 04:19:05;;;;;;;20.38;15.80;;;;;;;11.36;100.00;99866.50;4973131;28;20038;-73
2023/04/17 04:21:30;;;;;;;21.23;17.25;;;;;;;11.35;100.00;99864.75;4973385;28;20382;-73
2023/04/17 04:23:56;;;;;;;20.02;15.75;;;;;;;11.34;100.00;99857.88;4972302;28;20528;-73
2023/04/17 04:26:23;;;;;;;30.55;18.08;;;;;;;11.32;100.00;99859.53;4972666;28;20034;-70
2023/04/17 04:28:48;;;;;;;24.77;17.38;;;;;;;11.23;100.00;99838.66;4973226;28;20035;-70
2023/04/17 04:31:17;;;;;;;24.48;16.85;;;;;;;11.13;100.00;99845.31;4973526;28;20065;-72
2023/04/17 04:33:43;;;;;;;24.35;19.05;;;;;;;11.17;100.00;99860.88;4972988;28;20108;-73
2023/04/17 04:36:12;;;;;;;24.27;18.45;;;;;;;11.07;100.00;99843.44;4972747;28;20031;-70
2023/04/17 04:38:38;;;;;;;24.58;16.88;;;;;;;11.12;100.00;99862.50;4972703;28;20041;-70
2023/04/17 04:41:09;;;;;;;23.52;17.55;;;;;;;11.10;100.00;99852.97;4971627;28;20053;-69
2023/04/17 04:43:35;;;;;;;22.13;16.58;;;;;;;11.15;100.00;99869.44;4972880;28;20031;-73
2023/04/17 04:46:01;;;;;;;23.45;15.77;;;;;;;11.12;100.00;99859.03;4972535;28;20567;-70
2023/04/17 04:48:27;;;;;;;24.10;15.57;;;;;;;11.20;100.00;99869.56;4972587;28;20066;-72
2023/04/17 04:50:54;;;;;;;22.67;15.38;;;;;;;11.25;100.00;99884.34;4972853;28;20469;-73
2023/04/17 04:53:19;;;;;;;24.08;15.15;;;;;;;11.23;100.00;99875.69;4972194;28;20529;-72
2023/04/17 04:55:45;;;;;;;19.88;15.13;;;;;;;11.09;100.00;99830.53;4972579;28;20114;-70
2023/04/17 04:58:10;;;;;;;24.73;15.45;;;;;;;11.32;100.00;99869.88;4972627;28;20026;-73
2023/04/17 05:00:36;;;;;;;19.67;14.55;;;;;;;11.00;100.00;99820.84;4972755;28;20034;-73
2023/04/17 05:03:02;;;;;;;23.83;14.80;;;;;;;11.27;100.00;99863.72;4972326;28;20402;-72
2023/04/17 05:05:27;;;;;;;23.20;15.48;;;;;;;11.24;100.00;99856.75;4972651;28;20085;-69
2023/04/17 05:07:53;;;;;;;23.08;15.20;;;;;;;11.23;100.00;99854.16;4972581;28;20035;-72
2023/04/17 05:10:19;;;;;;;25.38;16.20;;;;;;;11.11;100.00;99834.91;4972444;28;20039;-70
2023/04/17 05:12:45;;;;;;;23.08;16.42;;;;;;;11.25;100.00;99852.47;4972585;28;20046;-72
2023/04/17 05:15:10;;;;;;;21.75;15.80;;;;;;;11.35;100.00;99853.56;4971382;28;20117;-69
2023/04/17 05:17:36;;;;;;;24.52;16.33;;;;;;;11.39;100.00;99861.44;4972452;28;20023;-69
2023/04/17 05:20:05;;;;;;;20.65;15.60;;;;;;;11.05;100.00;99802.91;4972204;28;20420;-72
2023/04/17 05:22:31;;;;;;;22.60;16.00;;;;;;;11.44;100.00;99872.75;4972068;28;20035;-75
2023/04/17 05:24:56;;;;;;;21.00;14.48;;;;;;;11.53;100.00;99863.47;4970803;28;20097;-69
2023/04/17 05:27:22;;;;;;;24.67;15.40;;;;;;;11.62;100.00;99874.88;4972355;28;20089;-69
2023/04/17 05:29:47;;;;;;;21.25;14.48;;;;;;;11.70;100.00;99866.41;4972079;28;20034;-68
2023/04/17 05:32:13;;;;;;;35.88;15.38;;;;;;;11.82;100.00;99871.88;4972140;28;20040;-69
2023/04/17 05:34:38;;;;;;;56.13;18.67;;;;;;;11.93;100.00;99872.13;4972092;28;20042;-69
2023/04/17 05:37:04;;;;;;;46.67;17.05;;;;;;;11.98;100.00;99865.34;4972057;28;20038;-70
2023/04/17 05:39:29;;;;;;;34.75;12.98;;;;;;;12.08;100.00;99858.66;4971878;28;20477;-72
2023/04/17 05:41:55;;;;;;;26.70;13.02;;;;;;;12.22;100.00;99862.41;4971953;28;20037;-73
2023/04/17 05:44:20;;;;;;;23.48;10.57;;;;;;;12.31;100.00;99866.88;4971474;28;20412;-72
2023/04/17 05:46:46;;;;;;;18.17;10.00;;;;;;;12.39;100.00;99874.81;4971643;28;20038;-70
2023/04/17 05:49:11;;;;;;;16.05;8.80;;;;;;;12.35;100.00;99881.66;4971560;28;20039;-72
2023/04/17 05:51:36;;;;;;;9.88;7.53;;;;;;;12.35;100.00;99873.00;4985410;28;20039;-72
2023/04/17 05:54:02;;;;;;;13.65;8.48;;;;;;;12.35;100.00;99879.06;4971698;28;20038;-73
2023/04/17 05:56:27;;;;;;;14.05;9.45;;;;;;;12.39;100.00;99888.63;4971820;28;20042;-74
2023/04/17 05:58:53;;;;;;;13.13;8.43;;;;;;;12.38;100.00;99892.06;4972034;28;20062;-70
2023/04/17 06:01:21;;;;;;;12.35;7.82;;;;;;;12.46;100.00;99894.78;4971746;28;20023;-70
2023/04/17 06:03:47;;;;;;;12.73;8.27;;;;;;;12.53;100.00;99893.22;4971261;28;20062;-69
2023/04/17 06:06:13;;;;;;;23.48;8.95;;;;;;;12.60;100.00;99895.09;4971692;28;20465;-72
2023/04/17 06:08:38;;;;;;;11.23;7.60;;;;;;;12.66;100.00;99909.84;4971288;28;20405;-70
2023/04/17 06:11:04;;;;;;;13.07;8.57;;;;;;;12.73;100.00;99912.59;4971415;28;20078;-70
2023/04/17 06:13:30;;;;;;;13.43;7.55;;;;;;;12.77;100.00;99914.41;4971357;28;20027;-72
2023/04/17 06:15:55;;;;;;;10.23;7.47;;;;;;;12.85;100.00;99918.88;4972076;28;20035;-69
2023/04/17 06:18:21;;;;;;;11.18;7.68;;;;;;;12.92;100.00;99913.81;4971791;28;20027;-71
2023/04/17 06:20:47;;;;;;;10.57;7.68;;;;;;;12.97;100.00;99910.44;4971142;28;20029;-73
2023/04/17 06:23:13;;;;;;;11.10;8.02;;;;;;;13.10;100.00;99910.69;4971714;28;20830;-73
2023/04/17 06:25:38;;;;;;;14.23;10.13;;;;;;;13.12;100.00;99913.28;4975015;28;20495;-71
2023/04/17 06:28:04;;;;;;;12.75;10.40;;;;;;;13.11;100.00;99919.34;4991861;28;20042;-71
2023/04/17 06:30:29;;;;;;;14.73;10.02;;;;;;;13.09;100.00;99926.22;4994683;28;20072;-69
2023/04/17 06:32:55;;;;;;;12.05;9.38;;;;;;;13.11;100.00;99919.34;4994892;28;20066;-71
2023/04/17 06:35:21;;;;;;;12.25;8.30;;;;;;;12.90;100.00;99927.59;4994661;28;20028;-72
2023/04/17 06:37:47;;;;;;;15.10;10.05;;;;;;;12.95;100.00;99936.31;4994662;28;20492;-71
2023/04/17 06:40:14;;;;;;;14.95;11.07;;;;;;;12.96;100.00;99940.66;4994933;28;20054;-72
2023/04/17 06:42:39;;;;;;;14.00;8.55;;;;;;;12.90;100.00;99933.63;4994452;28;20037;-70
2023/04/17 06:45:05;;;;;;;9.55;6.90;;;;;;;12.69;100.00;99897.84;4994779;28;20038;-71
2023/04/17 06:47:31;;;;;;;10.63;7.35;;;;;;;13.01;100.00;99930.38;4994938;28;20042;-72
2023/04/17 06:49:58;;;;;;;11.77;6.93;;;;;;;13.13;100.00;99945.28;4992123;28;20043;-70
2023/04/17 06:52:27;;;;;;;10.70;6.78;;;;;;;13.15;100.00;99943.59;4994789;28;20022;-71
2023/04/17 06:54:54;;;;;;;11.57;6.75;;;;;;;13.08;100.00;99938.31;4994286;28;20033;-70
2023/04/17 06:57:20;;;;;;;11.98;6.85;;;;;;;13.23;100.00;99944.59;4994427;28;20030;-71
2023/04/17 06:59:47;;;;;;;9.63;6.57;;;;;;;13.21;100.00;99939.38;4994432;28;20027;-73
2023/04/17 07:02:13;;;;;;;9.57;6.18;;;;;;;13.33;100.00;99956.84;4993058;28;20121;-71
2023/04/17 07:04:40;;;;;;;9.23;6.55;;;;;;;13.22;100.00;99951.50;4993040;28;20126;-72
2023/04/17 07:07:05;;;;;;;11.48;6.95;;;;;;;13.23;100.00;99960.13;4994320;28;20034;-71
2023/04/17 07:09:32;;;;;;;9.85;6.93;;;;;;;12.92;100.00;99918.13;4994047;28;20092;-71
2023/04/17 07:11:58;;;;;;;9.63;6.90;;;;;;;13.09;100.00;99965.94;4993888;28;20495;-71
2023/04/17 07:14:24;;;;;;;12.43;7.78;;;;;;;13.07;100.00;99954.69;4994351;28;20030;-71
2023/04/17 07:16:49;;;;;;;12.80;7.45;;;;;;;13.06;100.00;99958.13;4994195;28;20023;-69
2023/04/17 07:19:15;;;;;;;11.07;7.15;;;;;;;13.16;100.00;99966.94;4993875;28;20042;-71
2023/04/17 07:21:41;;;;;;;11.35;7.07;;;;;;;13.10;100.00;99967.69;4994026;28;20100;-72
2023/04/17 07:24:07;;;;;;;13.05;7.10;;;;;;;13.12;100.00;99965.13;4994147;28;20054;-69
2023/04/17 07:26:32;;;;;;;10.05;6.75;;;;;;;13.07;100.00;99962.47;4993583;28;20034;-71
2023/04/17 07:28:58;;;;;;;9.77;7.32;;;;;;;13.08;100.00;99966.81;4993641;28;20026;-71
2023/04/17 07:31:23;;;;;;;14.80;8.38;;;;;;;13.14;100.00;99972.94;4993930;28;20028;-72
2023/04/17 07:33:50;;;;;;;12.52;7.57;;;;;;;13.24;100.00;99967.94;4993243;28;20026;-71
2023/04/17 07:36:15;;;;;;;12.55;7.60;;;;;;;13.27;100.00;99967.13;4993371;28;20023;-72
2023/04/17 07:38:41;;;;;;;13.13;7.45;;;;;;;13.17;100.00;99966.09;4993003;28;20027;-71
2023/04/17 07:41:07;;;;;;;9.95;7.13;;;;;;;13.22;100.00;99958.38;4993864;28;20025;-71
2023/04/17 07:43:32;;;;;;;13.40;6.95;;;;;;;13.34;100.00;99971.56;4997002;28;20050;-70
2023/04/17 07:45:58;;;;;;;10.00;7.38;;;;;;;13.46;100.00;99972.66;4993414;28;20022;-69
2023/04/17 07:48:24;;;;;;;12.98;7.38;;;;;;;13.27;100.00;99961.94;4993122;28;20117;-69
2023/04/17 07:50:50;;;;;;;9.40;7.35;;;;;;;13.38;100.00;99973.44;4993189;28;20092;-71
2023/04/17 07:53:17;;;;;;;9.27;6.32;;;;;;;13.13;100.00;99925.41;4993482;28;20022;-71
2023/04/17 07:55:43;;;;;;;11.90;7.03;;;;;;;13.17;100.00;99928.94;4993661;28;20510;-71
2023/04/17 07:58:10;;;;;;;9.18;6.50;;;;;;;13.45;100.00;99978.72;4993197;28;20038;-71
2023/04/17 08:00:37;;;;;;;10.82;6.60;;;;;;;13.42;100.00;99972.63;4991878;28;20081;-71
2023/04/17 08:03:03;;;;;;;11.15;7.00;;;;;;;13.40;100.00;99989.00;4993089;28;20034;-71
2023/04/17 08:05:28;;;;;;;11.52;7.60;;;;;;;13.46;100.00;99983.03;4993054;28;20033;-72
2023/04/17 08:07:54;;;;;;;11.85;7.97;;;;;;;13.47;100.00;99974.41;4993393;28;20030;-71
2023/04/17 08:10:19;;;;;;;11.00;7.80;;;;;;;13.35;100.00;99965.53;4993304;28;20032;-70
2023/04/17 08:12:45;;;;;;;12.75;7.40;;;;;;;13.51;100.00;99994.38;4993029;28;20038;-69
2023/04/17 08:15:12;;;;;;;18.50;7.72;;;;;;;13.20;100.00;99941.97;4993220;28;20404;-71
2023/04/17 08:17:40;;;;;;;10.80;7.50;;;;;;;13.37;100.00;99987.22;4991728;28;20038;-68
2023/04/17 08:20:10;;;;;;;12.07;7.68;;;;;;;13.26;100.00;99961.06;4992828;28;20038;-71
2023/04/17 08:22:40;;;;;;;12.20;7.38;;;;;;;13.23;100.00;99939.41;4992746;28;20042;-73
2023/04/17 08:25:08;;;;;;;;;;;;;;;13.57;100.00;99981.50;4993172;28;20042;-71
2023/04/17 08:27:37;;;;;;;11.75;7.53;;;;;;;13.60;100.00;99991.94;4992589;28;20376;-71
2023/04/17 08:30:04;;;;;;;14.65;8.25;;;;;;;13.59;100.00;99990.19;5023094;28;20037;-72
2023/04/17 08:32:41;;;;;;;11.20;7.25;;;;;;;13.68;100.00;99984.28;4992521;28;20042;-71
2023/04/17 08:35:10;;;;;;;13.38;8.40;;;;;;;13.71;100.00;99974.81;4991508;28;20456;-70
2023/04/17 08:37:36;;;;;;;12.27;8.30;;;;;;;13.75;100.00;99989.59;4992375;28;20022;-73
2023/04/17 08:40:03;;;;;;;10.38;7.10;;;;;;;13.79;100.00;99981.88;4992676;28;20508;-69
2023/04/17 08:42:33;;;;;;;12.15;7.78;;;;;;;13.79;100.00;99987.91;4992296;28;20038;-70
2023/04/17 08:45:03;;;;;;;10.52;7.60;;;;;;;13.82;100.00;99989.69;4992596;28;20029;-68
2023/04/17 08:47:29;;;;;;;11.60;8.00;;;;;;;13.83;100.00;99986.25;4992272;28;20073;-71
2023/04/17 08:49:56;;;;;;;10.00;7.45;;;;;;;13.67;100.00;99948.81;4992175;28;20097;-71
2023/04/17 08:52:22;;;;;;;19.40;7.60;;;;;;;13.97;100.00;99989.03;4992488;28;20084;-71
2023/04/17 08:54:49;;;;;;;10.13;6.75;;;;;;;13.97;100.00;99984.75;4991811;28;20034;-71
2023/04/17 08:57:14;;;;;;;11.88;6.80;;;;;;;13.88;100.00;99985.47;4992004;28;20122;-68
2023/04/17 08:59:44;;;;;;;9.43;7.00;;;;;;;13.98;100.00;99986.50;4992299;28;20018;-70
2023/04/17 09:02:10;;;;;;;10.05;6.78;;;;;;;14.01;100.00;99986.53;4992245;28;20038;-69
2023/04/17 09:04:41;;;;;;;10.15;6.78;;;;;;;14.05;100.00;99982.25;4992025;28;20018;-68
2023/04/17 09:07:08;;;;;;;8.70;6.50;;;;;;;13.87;100.00;99946.53;4991679;28;20038;-69
2023/04/17 09:09:54;;;;;;;26.20;19.15;;;;;;;13.86;100.00;99945.66;4991409;28;20495;-70
2023/04/17 09:12:24;;;;;;;11.20;7.60;;;;;;;14.14;100.00;99994.50;4992102;28;20420;-71
2023/04/17 09:14:50;;;;;;;8.30;6.50;;;;;;;13.85;100.00;99940.44;4991627;28;20033;-71
2023/04/17 09:17:18;;;;;;;9.95;7.28;;;;;;;14.15;100.00;99985.88;4992177;28;20392;-71
2023/04/17 09:20:06;;;;;;;13.60;7.60;;;;;;;14.19;100.00;99998.03;4991983;28;20026;-68
2023/04/17 09:22:32;;;;;;;11.57;6.57;;;;;;;14.27;100.00;99988.66;4991493;28;20370;-68
2023/04/17 09:24:58;;;;;;;10.70;7.45;;;;;;;14.01;100.00;99947.59;4992640;28;20039;-71
2023/04/17 09:27:43;;;;;;;9.57;7.47;;;;;;;14.31;100.00;99992.16;5028113;28;20499;-69
2023/04/17 09:30:09;;;;;;;11.50;7.50;;;;;;;14.22;100.00;99951.38;5028017;28;20036;-72
2023/04/17 09:32:34;;;;;;;11.20;8.00;;;;;;;14.25;100.00;99956.59;5027870;28;20107;-68
2023/04/17 09:35:03;;;;;;;10.32;6.72;;;;;;;14.32;100.00;99971.41;5028075;28;20026;-70
2023/04/17 09:37:58;;;;;;;13.43;7.10;;;;;;;13.95;100.00;99926.75;5028307;28;20080;-72
2023/04/17 09:40:26;;;;;;;10.27;6.78;;;;;;;14.52;100.00;100001.97;5017701;28;20076;-70
2023/04/17 09:42:55;;;;;;;12.10;6.73;;;;;;;14.58;100.00;99996.84;5008433;28;20041;-70
2023/04/17 09:45:23;;;;;;;11.40;6.82;;;;;;;14.60;100.00;99989.06;5013590;28;20049;-73
2023/04/17 09:47:55;;;;;;;9.98;7.00;;;;;;;14.55;100.00;99955.25;5028096;28;20065;-70
2023/04/17 09:50:23;;;;;;;11.55;6.75;;;;;;;14.97;100.00;99984.34;5028147;28;20044;-69
2023/04/17 09:52:53;;;;;;;8.45;6.60;;;;;;;15.26;100.00;99978.59;5028001;28;20033;-71
2023/04/17 09:55:20;;;;;;;8.95;6.00;;;;;;;15.48;100.00;99983.13;5019330;28;20033;-70
2023/04/17 09:57:48;;;;;;;10.52;6.35;;;;;;;15.62;100.00;99980.63;5019236;28;20038;-68
2023/04/17 10:00:16;;;;;;;8.85;5.57;;;;;;;15.95;100.00;99988.72;4970312;28;20552;-73
2023/04/17 10:02:43;;;;;;;7.90;5.30;;;;;;;16.01;100.00;99989.66;4978050;28;20031;-71
2023/04/17 10:05:12;;;;;;;8.70;6.50;;;;;;;16.00;100.00;99985.31;4971884;28;20023;-70
2023/04/17 10:07:40;;;;;;;9.63;5.93;;;;;;;16.08;100.00;99982.75;4988311;28;20070;-70
2023/04/17 10:10:09;;;;;;;9.80;5.78;;;;;;;16.01;100.00;99978.34;4990308;28;20422;-70
2023/04/17 10:12:37;;;;;;;8.65;6.22;;;;;;;15.99;100.00;99983.56;4990650;28;20026;-70
2023/04/17 10:15:06;;;;;;;11.00;5.57;;;;;;;16.06;100.00;99978.41;5004591;28;20034;-69
2023/04/17 10:17:33;;;;;;;8.85;5.90;;;;;;;15.71;100.00;99932.13;4990306;28;20081;-69
2023/04/17 10:20:14;;;;;;;10.77;6.28;;;;;;;16.06;100.00;99978.41;4988882;28;20030;-75
2023/04/17 10:22:42;;;;;;;11.10;6.20;;;;;;;16.13;100.00;99974.97;4982307;28;20053;-69
2023/04/17 10:25:11;;;;;;;8.82;5.60;;;;;;;16.14;100.00;99976.72;4990467;28;20038;-68
2023/04/17 10:27:37;;;;;;;6.77;4.87;;;;;;;15.70;100.00;99939.06;4973721;28;20453;-71
2023/04/17 10:30:08;;;;;;;8.80;5.63;;;;;;;15.43;100.00;99937.13;4985805;28;20042;-72
2023/04/17 10:32:34;;;;;;;8.65;6.30;;;;;;;15.54;100.00;99969.31;4988864;28;20022;-71
2023/04/17 10:35:22;;;;;;;9.35;6.53;;;;;;;15.36;100.00;99952.69;4987644;28;20465;-75
2023/04/17 10:37:50;;;;;;;14.80;11.23;;;;;;;15.46;100.00;99970.97;4968253;28;20039;-67
2023/04/17 10:40:23;;;;;;;12.73;5.43;;;;;;;15.39;100.00;99977.84;4968388;28;20058;-70
2023/04/17 10:43:15;;;;;;;8.55;5.55;;;;;;;15.37;100.00;99975.22;4968414;28;20039;-73
2023/04/17 10:46:10;;;;;;;9.68;6.03;;;;;;;15.35;100.00;99976.06;4968028;28;20043;-70
2023/04/17 10:48:51;;;;;;;12.35;6.30;;;;;;;15.39;100.00;99972.66;4968159;28;20039;-69
2023/04/17 10:51:26;;;;;;;7.85;6.05;;;;;;;15.35;100.00;99969.16;4968367;28;20046;-70
2023/04/17 10:53:55;;;;;;;9.40;5.43;;;;;;;15.44;100.00;99964.88;4967521;28;20055;-69
2023/04/17 10:56:38;;;;;;;10.23;6.00;;;;;;;15.46;100.00;99965.75;4968424;28;20035;-72
2023/04/17 10:59:06;;;;;;;7.90;5.78;;;;;;;15.50;100.00;99954.50;4968237;28;20045;-71
2023/04/17 11:01:36;;;;;;;9.90;6.35;;;;;;;15.43;100.00;99957.94;4967898;28;20035;-72
2023/04/17 11:04:03;;;;;;;7.93;6.18;;;;;;;15.39;100.00;99953.56;4948569;29;20054;-72
2023/04/17 11:06:35;;;;;;;9.02;6.57;;;;;;;15.35;100.00;99961.34;4948496;29;20063;-71
2023/04/17 11:09:02;;;;;;;9.60;6.85;;;;;;;15.47;100.00;99954.50;4948769;28;20047;-70
2023/04/17 11:11:27;;;;;;;9.43;5.57;;;;;;;15.63;100.00;99960.72;4948615;28;20023;-69
2023/04/17 11:13:53;;;;;;;9.65;6.13;;;;;;;15.42;100.00;99961.41;4956465;28;20036;-70
2023/04/17 11:16:21;;;;;;;12.27;6.07;;;;;;;15.43;100.00;99958.81;4990889;28;20045;-70
2023/04/17 11:18:47;;;;;;;7.75;6.22;;;;;;;15.43;100.00;99930.19;4990896;28;20165;-71
2023/04/17 11:21:14;;;;;;;10.13;6.22;;;;;;;15.67;100.00;99944.25;4990912;28;20026;-71
2023/04/17 11:23:40;;;;;;;9.27;6.40;;;;;;;15.81;100.00;99932.22;4990605;28;20046;-75
2023/04/17 11:26:08;;;;;;;9.50;6.10;;;;;;;15.84;100.00;99929.66;4991186;28;20437;-69
2023/04/17 11:28:35;;;;;;;9.75;6.63;;;;;;;15.96;100.00;99938.41;4990979;28;20046;-71
2023/04/17 11:31:01;;;;;;;8.55;6.10;;;;;;;15.94;100.00;99940.16;4958169;28;20443;-73
2023/04/17 11:33:33;;;;;;;9.88;6.18;;;;;;;15.89;100.00;99940.09;4983902;28;20042;-68
2023/04/17 11:35:59;;;;;;;9.68;6.72;;;;;;;15.82;100.00;99907.09;4974343;28;20533;-71